TimePDT,TemperatureF,Dew PointF,Humidity,Sea Level PressureIn,VisibilityMPH,Wind Direction,Wind SpeedMPH,Gust SpeedMPH,PrecipitationIn,Events,Conditions,WindDirDegrees,DateUTC
12:53 AM,55.0,51.1,86,30.18,10.0,West,3.5,-,N/A,,Overcast,260,2013-06-13 07:53:00
1:53 AM,54.0,50.0,86,30.18,10.0,WSW,3.5,-,N/A,,Overcast,240,2013-06-13 08:53:00
2:53 AM,53.1,50.0,89,30.18,9.0,SW,4.6,-,0.02,Rain,Light Rain,230,2013-06-13 09:53:00
3:53 AM,52.0,50.0,93,30.18,5.0,South,3.5,-,0.05,Rain,Rain,190,2013-06-13 10:53:00
4:53 AM,52.0,50.0,93,30.18,10.0,South,5.8,-,0.06,,Overcast,180,2013-06-13 11:53:00
4:58 AM,51.8,50.0,94,30.18,10.0,South,5.8,-,N/A,,Overcast,180,2013-06-13 11:58:00
5:32 AM,51.8,50.0,94,30.18,10.0,South,6.9,-,N/A,,Overcast,180,2013-06-13 12:32:00
5:53 AM,52.0,50.0,93,30.18,10.0,South,8.1,-,0.00,Rain,Light Rain,190,2013-06-13 12:53:00
6:12 AM,51.8,50.0,94,30.19,10.0,South,5.8,-,0.00,Rain,Light Rain,180,2013-06-13 13:12:00
6:31 AM,51.8,50.0,94,30.19,10.0,South,6.9,-,0.00,,Overcast,180,2013-06-13 13:31:00
6:53 AM,52.0,50.0,93,30.19,6.0,South,5.8,-,0.02,Rain,Light Rain,170,2013-06-13 13:53:00
7:53 AM,52.0,50.0,93,30.19,10.0,SSW,5.8,-,0.00,,Overcast,200,2013-06-13 14:53:00
8:53 AM,54.0,51.1,90,30.20,10.0,SSW,6.9,-,N/A,,Overcast,200,2013-06-13 15:53:00
9:53 AM,54.0,52.0,93,30.21,10.0,South,9.2,-,0.01,,Overcast,180,2013-06-13 16:53:00
10:16 AM,55.4,53.6,94,30.20,10.0,South,10.4,-,N/A,,Mostly Cloudy,180,2013-06-13 17:16:00
10:53 AM,57.9,52.0,81,30.21,10.0,South,11.5,-,N/A,,Mostly Cloudy,190,2013-06-13 17:53:00
11:53 AM,57.0,52.0,83,30.22,7.0,South,8.1,-,0.07,Rain,Light Rain,190,2013-06-13 18:53:00
12:53 PM,57.0,53.1,87,30.23,10.0,South,5.8,-,0.04,Rain,Light Rain,190,2013-06-13 19:53:00
1:53 PM,59.0,52.0,78,30.23,10.0,SSW,6.9,-,0.00,Rain,Light Rain,210,2013-06-13 20:53:00
2:53 PM,61.0,51.1,70,30.23,10.0,SW,10.4,-,0.00,Rain,Light Rain,230,2013-06-13 21:53:00
3:53 PM,62.1,50.0,65,30.24,10.0,SW,6.9,-,0.00,,Mostly Cloudy,230,2013-06-13 22:53:00
4:53 PM,61.0,52.0,72,30.25,10.0,West,9.2,-,0.00,Rain,Light Rain,270,2013-06-13 23:53:00
5:07 PM,59.0,53.6,82,30.25,4.0,West,11.5,-,0.01,Rain,Rain,270,2013-06-14 00:07:00
5:24 PM,57.2,53.6,88,30.25,5.0,West,6.9,-,0.05,Rain,Light Rain,280,2013-06-14 00:24:00
5:53 PM,59.0,55.0,87,30.25,10.0,SW,3.5,-,0.07,,Overcast,230,2013-06-14 00:53:00
6:53 PM,61.0,53.1,75,30.25,10.0,SW,3.5,-,N/A,,Mostly Cloudy,230,2013-06-14 01:53:00
7:53 PM,60.1,52.0,75,30.25,10.0,SW,5.8,-,N/A,,Mostly Cloudy,230,2013-06-14 02:53:00
8:53 PM,59.0,53.1,81,30.25,10.0,WSW,5.8,-,N/A,,Scattered Clouds,250,2013-06-14 03:53:00
9:53 PM,57.0,51.1,81,30.27,10.0,West,6.9,-,N/A,,Scattered Clouds,280,2013-06-14 04:53:00
10:53 PM,57.0,48.9,74,30.29,10.0,NNW,5.8,-,N/A,,Mostly Cloudy,330,2013-06-14 05:53:00
11:53 PM,55.0,46.9,74,30.30,10.0,NW,4.6,-,N/A,,Mostly Cloudy,310,2013-06-14 06:53:00